sensor_id;sensor_type;location;lat;lon;timestamp;pressure;altitude;pressure_sealevel;temperature;humidity
54308;BME280;40208;39.778;2.710;2022-11-15T00:01:23;101427.66;;;19.07;100.00
54308;BME280;40208;39.778;2.710;2022-11-15T00:04:08;101428.53;;;18.95;100.00
54308;BME280;40208;39.778;2.710;2022-11-15T00:06:54;101425.28;;;19.02;100.00
54308;BME280;40208;39.778;2.710;2022-11-15T00:09:38;101432.81;;;18.97;100.00
54308;BME280;40208;39.778;2.710;2022-11-15T00:12:23;101421.75;;;19.02;100.00
54308;BME280;40208;39.778;2.710;2022-11-15T00:15:08;101419.81;;;19.04;100.00
54308;BME280;40208;39.778;2.710;2022-11-15T00:17:53;101426.13;;;19.03;100.00
54308;BME280;40208;39.778;2.710;2022-11-15T00:20:38;101427.03;;;19.03;100.00
54308;BME280;40208;39.778;2.710;2022-11-15T00:23:22;101427.88;;;19.04;100.00
54308;BME280;40208;39.778;2.710;2022-11-15T00:26:11;101418.63;;;19.08;100.00
54308;BME280;40208;39.778;2.710;2022-11-15T00:28:56;101422.81;;;18.99;100.00
54308;BME280;40208;39.778;2.710;2022-11-15T00:31:40;101421.97;;;18.99;100.00
54308;BME280;40208;39.778;2.710;2022-11-15T00:34:25;101417.13;;;19.04;100.00
54308;BME280;40208;39.778;2.710;2022-11-15T00:37:10;101416.47;;;19.00;100.00
54308;BME280;40208;39.778;2.710;2022-11-15T00:39:55;101411.53;;;18.94;100.00
54308;BME280;40208;39.778;2.710;2022-11-15T00:42:40;101408.50;;;18.99;100.00
54308;BME280;40208;39.778;2.710;2022-11-15T00:45:25;101407.09;;;18.93;100.00
54308;BME280;40208;39.778;2.710;2022-11-15T00:48:09;101404.41;;;18.93;100.00
54308;BME280;40208;39.778;2.710;2022-11-15T00:50:54;101403.47;;;18.94;100.00
54308;BME280;40208;39.778;2.710;2022-11-15T00:53:38;101401.41;;;18.85;100.00
54308;BME280;40208;39.778;2.710;2022-11-15T00:56:23;101403.34;;;18.83;100.00
54308;BME280;40208;39.778;2.710;2022-11-15T00:59:08;101394.31;;;18.84;100.00
54308;BME280;40208;39.778;2.710;2022-11-15T01:01:53;101399.44;;;18.74;100.00
54308;BME280;40208;39.778;2.710;2022-11-15T01:04:37;101402.03;;;18.76;100.00
54308;BME280;40208;39.778;2.710;2022-11-15T01:07:22;101401.47;;;18.71;100.00
54308;BME280;40208;39.778;2.710;2022-11-15T01:10:07;101401.38;;;18.72;100.00
54308;BME280;40208;39.778;2.710;2022-11-15T01:12:52;101394.28;;;18.58;100.00
54308;BME280;40208;39.778;2.710;2022-11-15T01:15:39;101390.81;;;18.56;100.00
54308;BME280;40208;39.778;2.710;2022-11-15T01:18:24;101391.03;;;18.53;100.00
54308;BME280;40208;39.778;2.710;2022-11-15T01:21:13;101397.38;;;18.52;100.00
54308;BME280;40208;39.778;2.710;2022-11-15T01:23:58;101399.22;;;18.52;100.00
54308;BME280;40208;39.778;2.710;2022-11-15T01:26:42;101392.22;;;18.49;100.00
54308;BME280;40208;39.778;2.710;2022-11-15T01:29:27;101397.69;;;18.48;100.00
54308;BME280;40208;39.778;2.710;2022-11-15T01:32:12;101292.50;;;18.01;100.00
54308;BME280;40208;39.778;2.710;2022-11-15T01:34:56;101376.00;;;18.63;100.00
54308;BME280;40208;39.778;2.710;2022-11-15T01:37:41;101379.84;;;18.59;100.00
54308;BME280;40208;39.778;2.710;2022-11-15T01:40:26;101374.06;;;18.65;100.00
54308;BME280;40208;39.778;2.710;2022-11-15T01:43:24;101371.88;;;18.58;100.00
54308;BME280;40208;39.778;2.710;2022-11-15T01:46:22;101370.59;;;18.51;100.00
54308;BME280;40208;39.778;2.710;2022-11-15T01:49:12;101352.53;;;18.53;100.00
54308;BME280;40208;39.778;2.710;2022-11-15T01:51:57;101361.66;;;18.50;100.00
54308;BME280;40208;39.778;2.710;2022-11-15T01:54:43;101366.72;;;18.55;100.00
54308;BME280;40208;39.778;2.710;2022-11-15T01:57:28;101360.72;;;18.51;100.00
54308;BME280;40208;39.778;2.710;2022-11-15T02:00:13;101357.06;;;18.52;100.00
54308;BME280;40208;39.778;2.710;2022-11-15T02:02:57;101359.09;;;18.49;100.00
54308;BME280;40208;39.778;2.710;2022-11-15T02:05:42;101362.09;;;18.44;100.00
54308;BME280;40208;39.778;2.710;2022-11-15T02:08:27;101353.69;;;18.36;100.00
54308;BME280;40208;39.778;2.710;2022-11-15T02:11:12;101346.16;;;18.28;100.00
54308;BME280;40208;39.778;2.710;2022-11-15T02:13:57;101343.03;;;18.21;100.00
54308;BME280;40208;39.778;2.710;2022-11-15T02:30:54;101339.88;;;17.75;100.00
54308;BME280;40208;39.778;2.710;2022-11-15T02:34:05;101346.28;;;17.72;100.00
54308;BME280;40208;39.778;2.710;2022-11-15T02:39:36;101340.97;;;17.58;100.00
54308;BME280;40208;39.778;2.710;2022-11-15T02:42:24;101343.97;;;17.53;100.00
54308;BME280;40208;39.778;2.710;2022-11-15T02:45:33;101335.66;;;17.44;100.00
54308;BME280;40208;39.778;2.710;2022-11-15T02:48:20;101322.66;;;17.37;100.00
54308;BME280;40208;39.778;2.710;2022-11-15T02:51:06;101321.88;;;17.35;100.00
54308;BME280;40208;39.778;2.710;2022-11-15T02:53:51;101311.53;;;17.29;100.00
54308;BME280;40208;39.778;2.710;2022-11-15T02:56:35;101312.50;;;17.28;100.00
54308;BME280;40208;39.778;2.710;2022-11-15T03:02:19;101310.94;;;17.11;100.00
54308;BME280;40208;39.778;2.710;2022-11-15T03:11:11;101304.31;;;17.03;100.00
54308;BME280;40208;39.778;2.710;2022-11-15T03:19:32;101296.22;;;16.90;100.00
54308;BME280;40208;39.778;2.710;2022-11-15T03:22:19;101293.81;;;16.85;100.00
54308;BME280;40208;39.778;2.710;2022-11-15T03:25:06;101291.13;;;16.85;100.00
54308;BME280;40208;39.778;2.710;2022-11-15T03:27:54;101291.69;;;16.76;100.00
54308;BME280;40208;39.778;2.710;2022-11-15T03:30:40;101283.94;;;16.71;100.00
54308;BME280;40208;39.778;2.710;2022-11-15T03:33:26;101284.22;;;16.67;100.00
54308;BME280;40208;39.778;2.710;2022-11-15T03:36:12;101279.34;;;16.59;100.00
54308;BME280;40208;39.778;2.710;2022-11-15T03:38:58;101285.75;;;16.57;100.00
54308;BME280;40208;39.778;2.710;2022-11-15T03:47:31;101258.00;;;16.43;100.00
54308;BME280;40208;39.778;2.710;2022-11-15T03:50:18;101261.66;;;16.42;100.00
54308;BME280;40208;39.778;2.710;2022-11-15T03:53:02;101255.78;;;16.36;100.00
54308;BME280;40208;39.778;2.710;2022-11-15T03:55:47;101257.69;;;16.33;100.00
54308;BME280;40208;39.778;2.710;2022-11-15T03:58:32;101261.16;;;16.36;100.00
54308;BME280;40208;39.778;2.710;2022-11-15T04:01:17;101253.97;;;16.36;100.00
54308;BME280;40208;39.778;2.710;2022-11-15T04:04:02;101260.38;;;16.33;100.00
54308;BME280;40208;39.778;2.710;2022-11-15T04:06:46;101258.00;;;16.29;100.00
54308;BME280;40208;39.778;2.710;2022-11-15T04:09:31;101251.84;;;16.27;100.00
54308;BME280;40208;39.778;2.710;2022-11-15T04:12:16;101250.31;;;16.23;100.00
54308;BME280;40208;39.778;2.710;2022-11-15T04:15:16;101261.22;;;16.20;100.00
54308;BME280;40208;39.778;2.710;2022-11-15T04:18:01;101254.31;;;16.16;100.00
54308;BME280;40208;39.778;2.710;2022-11-15T04:20:46;101248.69;;;16.20;100.00
54308;BME280;40208;39.778;2.710;2022-11-15T04:23:49;101248.59;;;16.22;100.00
54308;BME280;40208;39.778;2.710;2022-11-15T04:26:48;101251.19;;;16.23;100.00
54308;BME280;40208;39.778;2.710;2022-11-15T04:29:33;101242.13;;;16.26;100.00
54308;BME280;40208;39.778;2.710;2022-11-15T04:32:18;101241.63;;;16.19;100.00
54308;BME280;40208;39.778;2.710;2022-11-15T04:35:04;101238.19;;;16.17;100.00
54308;BME280;40208;39.778;2.710;2022-11-15T04:37:49;101240.19;;;16.14;100.00
54308;BME280;40208;39.778;2.710;2022-11-15T04:40:34;101236.75;;;16.11;100.00
54308;BME280;40208;39.778;2.710;2022-11-15T04:43:19;101240.34;;;16.10;100.00
54308;BME280;40208;39.778;2.710;2022-11-15T04:46:04;101224.41;;;16.09;100.00
54308;BME280;40208;39.778;2.710;2022-11-15T04:48:49;101222.09;;;16.17;100.00
54308;BME280;40208;39.778;2.710;2022-11-15T04:51:33;101225.84;;;16.15;100.00
54308;BME280;40208;39.778;2.710;2022-11-15T04:54:18;101223.25;;;16.13;100.00
54308;BME280;40208;39.778;2.710;2022-11-15T04:57:03;101222.97;;;16.18;100.00
54308;BME280;40208;39.778;2.710;2022-11-15T04:59:47;101225.84;;;16.15;100.00
54308;BME280;40208;39.778;2.710;2022-11-15T05:02:32;101224.59;;;16.20;100.00
54308;BME280;40208;39.778;2.710;2022-11-15T05:05:35;101223.94;;;16.17;100.00
54308;BME280;40208;39.778;2.710;2022-11-15T05:08:20;101223.38;;;16.26;100.00
54308;BME280;40208;39.778;2.710;2022-11-15T05:11:05;101219.06;;;16.23;100.00
54308;BME280;40208;39.778;2.710;2022-11-15T05:13:50;101217.31;;;16.22;100.00
54308;BME280;40208;39.778;2.710;2022-11-15T05:16:35;101220.00;;;16.22;100.00
54308;BME280;40208;39.778;2.710;2022-11-15T05:19:20;101234.25;;;16.23;100.00
54308;BME280;40208;39.778;2.710;2022-11-15T05:22:04;101220.00;;;16.22;100.00
54308;BME280;40208;39.778;2.710;2022-11-15T05:24:49;101222.03;;;16.19;100.00
54308;BME280;40208;39.778;2.710;2022-11-15T05:27:34;101223.16;;;16.29;100.00
54308;BME280;40208;39.778;2.710;2022-11-15T05:30:19;101221.91;;;16.35;100.00
54308;BME280;40208;39.778;2.710;2022-11-15T05:33:03;101225.75;;;16.30;100.00
54308;BME280;40208;39.778;2.710;2022-11-15T05:35:50;101224.03;;;16.29;100.00
54308;BME280;40208;39.778;2.710;2022-11-15T05:38:36;101229.38;;;16.29;100.00
54308;BME280;40208;39.778;2.710;2022-11-15T05:41:21;101225.66;;;16.32;100.00
54308;BME280;40208;39.778;2.710;2022-11-15T05:44:09;101226.53;;;16.32;100.00
54308;BME280;40208;39.778;2.710;2022-11-15T05:46:55;101234.84;;;16.28;100.00
54308;BME280;40208;39.778;2.710;2022-11-15T05:49:41;101230.06;;;16.33;100.00
54308;BME280;40208;39.778;2.710;2022-11-15T05:52:27;101228.31;;;16.32;100.00
54308;BME280;40208;39.778;2.710;2022-11-15T05:55:14;101232.06;;;16.29;100.00
54308;BME280;40208;39.778;2.710;2022-11-15T05:57:59;101226.03;;;16.26;100.00
54308;BME280;40208;39.778;2.710;2022-11-15T06:00:44;101220.19;;;16.33;100.00
54308;BME280;40208;39.778;2.710;2022-11-15T06:03:29;101217.44;;;16.35;100.00
54308;BME280;40208;39.778;2.710;2022-11-15T06:06:14;101222.88;;;16.33;100.00
54308;BME280;40208;39.778;2.710;2022-11-15T06:08:59;101231.78;;;16.34;100.00
54308;BME280;40208;39.778;2.710;2022-11-15T06:11:43;101228.16;;;16.35;100.00
54308;BME280;40208;39.778;2.710;2022-11-15T06:14:28;101234.25;;;16.37;100.00
54308;BME280;40208;39.778;2.710;2022-11-15T06:17:13;101226.97;;;16.39;100.00
54308;BME280;40208;39.778;2.710;2022-11-15T06:19:57;101233.59;;;16.48;100.00
54308;BME280;40208;39.778;2.710;2022-11-15T06:22:42;101235.59;;;16.44;100.00
54308;BME280;40208;39.778;2.710;2022-11-15T06:25:27;101240.94;;;16.44;100.00
54308;BME280;40208;39.778;2.710;2022-11-15T06:28:12;101225.75;;;16.45;100.00
54308;BME280;40208;39.778;2.710;2022-11-15T06:31:04;101226.41;;;16.48;100.00
54308;BME280;40208;39.778;2.710;2022-11-15T06:33:48;101234.44;;;16.48;100.00
54308;BME280;40208;39.778;2.710;2022-11-15T06:36:34;101237.91;;;16.50;100.00
54308;BME280;40208;39.778;2.710;2022-11-15T06:39:19;101231.69;;;16.50;100.00
54308;BME280;40208;39.778;2.710;2022-11-15T06:42:03;101233.41;;;16.51;100.00
54308;BME280;40208;39.778;2.710;2022-11-15T06:44:48;101240.56;;;16.50;100.00
54308;BME280;40208;39.778;2.710;2022-11-15T06:47:33;101235.41;;;16.47;100.00
54308;BME280;40208;39.778;2.710;2022-11-15T06:50:17;101230.84;;;16.49;100.00
54308;BME280;40208;39.778;2.710;2022-11-15T06:53:05;101245.16;;;16.48;100.00
54308;BME280;40208;39.778;2.710;2022-11-15T06:55:50;101235.31;;;16.49;100.00
54308;BME280;40208;39.778;2.710;2022-11-15T06:58:34;101235.13;;;16.52;100.00
54308;BME280;40208;39.778;2.710;2022-11-15T07:01:19;101234.16;;;16.53;100.00
54308;BME280;40208;39.778;2.710;2022-11-15T07:04:04;101237.53;;;16.57;100.00
54308;BME280;40208;39.778;2.710;2022-11-15T07:06:49;101232.94;;;16.59;100.00
54308;BME280;40208;39.778;2.710;2022-11-15T07:09:33;101240.19;;;16.57;100.00
54308;BME280;40208;39.778;2.710;2022-11-15T07:12:18;101252.63;;;16.58;100.00
54308;BME280;40208;39.778;2.710;2022-11-15T07:15:04;101245.72;;;16.68;100.00
54308;BME280;40208;39.778;2.710;2022-11-15T07:17:50;101247.38;;;16.70;100.00
54308;BME280;40208;39.778;2.710;2022-11-15T07:20:34;101248.53;;;16.66;100.00
54308;BME280;40208;39.778;2.710;2022-11-15T07:23:19;101249.16;;;16.70;100.00
54308;BME280;40208;39.778;2.710;2022-11-15T07:26:04;101254.44;;;16.71;100.00
54308;BME280;40208;39.778;2.710;2022-11-15T07:28:49;101253.19;;;16.77;100.00
54308;BME280;40208;39.778;2.710;2022-11-15T07:31:33;101252.94;;;16.82;100.00
54308;BME280;40208;39.778;2.710;2022-11-15T07:34:18;101249.94;;;16.86;100.00
54308;BME280;40208;39.778;2.710;2022-11-15T07:37:03;101252.34;;;16.91;100.00
54308;BME280;40208;39.778;2.710;2022-11-15T07:39:48;101241.31;;;16.95;100.00
54308;BME280;40208;39.778;2.710;2022-11-15T07:42:32;101247.34;;;16.99;100.00
54308;BME280;40208;39.778;2.710;2022-11-15T07:45:40;101243.19;;;17.08;100.00
54308;BME280;40208;39.778;2.710;2022-11-15T07:48:24;101250.09;;;17.12;100.00
54308;BME280;40208;39.778;2.710;2022-11-15T07:51:12;101256.00;;;17.17;100.00
54308;BME280;40208;39.778;2.710;2022-11-15T07:53:58;101247.66;;;17.22;100.00
54308;BME280;40208;39.778;2.710;2022-11-15T07:56:42;101250.50;;;17.33;100.00
54308;BME280;40208;39.778;2.710;2022-11-15T07:59:27;101252.91;;;17.37;100.00
54308;BME280;40208;39.778;2.710;2022-11-15T08:02:12;101244.31;;;17.45;100.00
54308;BME280;40208;39.778;2.710;2022-11-15T08:04:57;101248.88;;;17.57;100.00
54308;BME280;40208;39.778;2.710;2022-11-15T08:07:41;101238.41;;;17.80;100.00
54308;BME280;40208;39.778;2.710;2022-11-15T08:10:26;101237.50;;;17.94;100.00
54308;BME280;40208;39.778;2.710;2022-11-15T08:13:13;101230.94;;;18.23;100.00
54308;BME280;40208;39.778;2.710;2022-11-15T08:15:59;101235.78;;;18.44;100.00
54308;BME280;40208;39.778;2.710;2022-11-15T08:18:43;101235.53;;;18.60;100.00
54308;BME280;40208;39.778;2.710;2022-11-15T08:21:28;101234.00;;;18.94;100.00
54308;BME280;40208;39.778;2.710;2022-11-15T08:24:13;101232.09;;;19.07;100.00
54308;BME280;40208;39.778;2.710;2022-11-15T08:26:58;101224.69;;;19.11;100.00
54308;BME280;40208;39.778;2.710;2022-11-15T08:29:43;101224.78;;;19.10;100.00
54308;BME280;40208;39.778;2.710;2022-11-15T08:32:28;101222.75;;;19.00;100.00
54308;BME280;40208;39.778;2.710;2022-11-15T08:35:13;101220.53;;;18.94;100.00
54308;BME280;40208;39.778;2.710;2022-11-15T08:37:57;101237.47;;;19.07;100.00
54308;BME280;40208;39.778;2.710;2022-11-15T08:40:42;101228.53;;;19.20;100.00
54308;BME280;40208;39.778;2.710;2022-11-15T08:43:27;101227.53;;;19.21;100.00
54308;BME280;40208;39.778;2.710;2022-11-15T08:46:12;101225.69;;;19.45;100.00
54308;BME280;40208;39.778;2.710;2022-11-15T08:48:58;101208.38;;;19.85;100.00
54308;BME280;40208;39.778;2.710;2022-11-15T08:51:42;101208.25;;;19.98;100.00
54308;BME280;40208;39.778;2.710;2022-11-15T08:54:27;101210.47;;;20.04;100.00
54308;BME280;40208;39.778;2.710;2022-11-15T08:57:12;101204.00;;;20.18;100.00
54308;BME280;40208;39.778;2.710;2022-11-15T08:59:57;101212.84;;;20.20;100.00
54308;BME280;40208;39.778;2.710;2022-11-15T09:02:41;101207.94;;;20.25;100.00
54308;BME280;40208;39.778;2.710;2022-11-15T09:05:26;101216.06;;;20.59;100.00
54308;BME280;40208;39.778;2.710;2022-11-15T09:08:11;101218.69;;;20.92;100.00
54308;BME280;40208;39.778;2.710;2022-11-15T09:10:57;101211.22;;;20.96;100.00
54308;BME280;40208;39.778;2.710;2022-11-15T09:13:42;101207.56;;;20.86;100.00
54308;BME280;40208;39.778;2.710;2022-11-15T09:16:26;101210.28;;;20.74;100.00
54308;BME280;40208;39.778;2.710;2022-11-15T09:19:11;101204.16;;;20.61;100.00
54308;BME280;40208;39.778;2.710;2022-11-15T09:21:56;101210.78;;;20.57;100.00
54308;BME280;40208;39.778;2.710;2022-11-15T09:24:41;101217.25;;;20.54;100.00
54308;BME280;40208;39.778;2.710;2022-11-15T09:27:29;101229.66;;;20.68;100.00
54308;BME280;40208;39.778;2.710;2022-11-15T09:30:13;101229.66;;;20.68;100.00
54308;BME280;40208;39.778;2.710;2022-11-15T09:32:58;101232.59;;;20.77;100.00
54308;BME280;40208;39.778;2.710;2022-11-15T09:35:43;101230.00;;;20.75;100.00
54308;BME280;40208;39.778;2.710;2022-11-15T09:38:28;101235.03;;;20.91;100.00
54308;BME280;40208;39.778;2.710;2022-11-15T09:44:06;101240.06;;;20.84;100.00
54308;BME280;40208;39.778;2.710;2022-11-15T09:49:37;101248.53;;;20.91;100.00
54308;BME280;40208;39.778;2.710;2022-11-15T09:52:22;101251.06;;;20.92;100.00
54308;BME280;40208;39.778;2.710;2022-11-15T09:55:08;101254.78;;;20.91;100.00
54308;BME280;40208;39.778;2.710;2022-11-15T09:57:55;101244.47;;;20.96;100.00
54308;BME280;40208;39.778;2.710;2022-11-15T10:00:44;101254.28;;;20.86;100.00
54308;BME280;40208;39.778;2.710;2022-11-15T10:03:36;101248.16;;;20.84;100.00
54308;BME280;40208;39.778;2.710;2022-11-15T10:06:24;101248.28;;;20.83;100.00
54308;BME280;40208;39.778;2.710;2022-11-15T10:09:14;101254.16;;;20.88;100.00
54308;BME280;40208;39.778;2.710;2022-11-15T10:12:01;101242.84;;;21.05;100.00
54308;BME280;40208;39.778;2.710;2022-11-15T10:14:46;101236.19;;;21.09;100.00
54308;BME280;40208;39.778;2.710;2022-11-15T10:20:47;101238.66;;;21.12;100.00
54308;BME280;40208;39.778;2.710;2022-11-15T10:23:32;101244.28;;;21.21;100.00
54308;BME280;40208;39.778;2.710;2022-11-15T10:26:17;101241.09;;;21.27;100.00
54308;BME280;40208;39.778;2.710;2022-11-15T10:29:01;101239.22;;;21.27;100.00
54308;BME280;40208;39.778;2.710;2022-11-15T10:31:46;101224.72;;;21.39;100.00
54308;BME280;40208;39.778;2.710;2022-11-15T10:34:35;101212.00;;;21.63;100.00
54308;BME280;40208;39.778;2.710;2022-11-15T10:37:29;101210.16;;;21.84;100.00
54308;BME280;40208;39.778;2.710;2022-11-15T10:40:19;101205.03;;;22.02;100.00
54308;BME280;40208;39.778;2.710;2022-11-15T10:43:25;101199.19;;;22.28;100.00
54308;BME280;40208;39.778;2.710;2022-11-15T10:49:25;101184.16;;;22.44;100.00
54308;BME280;40208;39.778;2.710;2022-11-15T10:52:19;101181.09;;;22.59;100.00
54308;BME280;40208;39.778;2.710;2022-11-15T10:55:17;101168.75;;;22.66;100.00
54308;BME280;40208;39.778;2.710;2022-11-15T10:58:05;101160.19;;;22.71;100.00
54308;BME280;40208;39.778;2.710;2022-11-15T11:00:50;101162.88;;;22.71;100.00
54308;BME280;40208;39.778;2.710;2022-11-15T11:03:37;101151.91;;;22.62;100.00
54308;BME280;40208;39.778;2.710;2022-11-15T11:06:22;101149.34;;;22.61;100.00
54308;BME280;40208;39.778;2.710;2022-11-15T11:09:09;101142.06;;;22.52;100.00
54308;BME280;40208;39.778;2.710;2022-11-15T11:12:08;101134.66;;;22.54;100.00
54308;BME280;40208;39.778;2.710;2022-11-15T11:14:53;101140.69;;;22.67;100.00
54308;BME280;40208;39.778;2.710;2022-11-15T11:40:50;101117.97;;;23.18;100.00
54308;BME280;40208;39.778;2.710;2022-11-15T11:49:08;101095.78;;;23.81;100.00
54308;BME280;40208;39.778;2.710;2022-11-15T11:55:02;101094.63;;;24.21;100.00
54308;BME280;40208;39.778;2.710;2022-11-15T12:00:54;101077.78;;;24.45;100.00
54308;BME280;40208;39.778;2.710;2022-11-15T12:03:55;101072.41;;;24.36;100.00
54308;BME280;40208;39.778;2.710;2022-11-15T12:06:46;101065.94;;;24.19;100.00
54308;BME280;40208;39.778;2.710;2022-11-15T12:09:35;101073.28;;;24.08;100.00
54308;BME280;40208;39.778;2.710;2022-11-15T12:15:16;101069.50;;;24.19;100.00
54308;BME280;40208;39.778;2.710;2022-11-15T12:18:02;101048.25;;;24.42;100.00
54308;BME280;40208;39.778;2.710;2022-11-15T12:20:57;101047.91;;;24.45;99.15
54308;BME280;40208;39.778;2.710;2022-11-15T12:23:49;101038.97;;;24.63;98.77
54308;BME280;40208;39.778;2.710;2022-11-15T12:26:42;101048.06;;;24.89;96.12
54308;BME280;40208;39.778;2.710;2022-11-15T12:29:35;101028.53;;;25.12;97.76
54308;BME280;40208;39.778;2.710;2022-11-15T12:35:06;101032.56;;;25.08;92.52
54308;BME280;40208;39.778;2.710;2022-11-15T12:38:04;101047.19;;;25.07;91.83
54308;BME280;40208;39.778;2.710;2022-11-15T12:41:12;101047.28;;;24.97;96.02
54308;BME280;40208;39.778;2.710;2022-11-15T12:43:54;101046.34;;;24.70;99.02
54308;BME280;40208;39.778;2.710;2022-11-15T12:52:12;101041.78;;;24.25;100.00
54308;BME280;40208;39.778;2.710;2022-11-15T12:54:58;101034.69;;;24.15;100.00
54308;BME280;40208;39.778;2.710;2022-11-15T12:57:43;101029.19;;;24.06;99.34
54308;BME280;40208;39.778;2.710;2022-11-15T13:03:17;101028.88;;;24.09;100.00
54308;BME280;40208;39.778;2.710;2022-11-15T13:06:03;101029.06;;;23.98;100.00
54308;BME280;40208;39.778;2.710;2022-11-15T13:08:49;101027.91;;;24.01;100.00
54308;BME280;40208;39.778;2.710;2022-11-15T13:11:47;101027.38;;;23.97;100.00
54308;BME280;40208;39.778;2.710;2022-11-15T13:14:39;100997.75;;;23.86;100.00
54308;BME280;40208;39.778;2.710;2022-11-15T13:20:37;100991.94;;;23.71;100.00
54308;BME280;40208;39.778;2.710;2022-11-15T13:23:22;100985.88;;;23.59;100.00
54308;BME280;40208;39.778;2.710;2022-11-15T13:26:13;100993.28;;;23.57;100.00
54308;BME280;40208;39.778;2.710;2022-11-15T13:29:00;100981.03;;;23.53;100.00
54308;BME280;40208;39.778;2.710;2022-11-15T13:31:45;100971.78;;;23.46;100.00
54308;BME280;40208;39.778;2.710;2022-11-15T13:34:31;100971.53;;;23.39;100.00
54308;BME280;40208;39.778;2.710;2022-11-15T13:43:23;100946.06;;;23.22;100.00
54308;BME280;40208;39.778;2.710;2022-11-15T13:49:04;100952.97;;;22.97;100.00
54308;BME280;40208;39.778;2.710;2022-11-15T13:51:50;100933.72;;;22.91;100.00
54308;BME280;40208;39.778;2.710;2022-11-15T13:54:43;100941.28;;;22.87;100.00
54308;BME280;40208;39.778;2.710;2022-11-15T13:57:31;100932.19;;;22.78;100.00
54308;BME280;40208;39.778;2.710;2022-11-15T14:00:33;100937.19;;;22.73;100.00
54308;BME280;40208;39.778;2.710;2022-11-15T14:03:21;100933.63;;;22.63;100.00
54308;BME280;40208;39.778;2.710;2022-11-15T14:06:10;100930.06;;;22.62;100.00
54308;BME280;40208;39.778;2.710;2022-11-15T14:11:56;100921.38;;;22.59;100.00
54308;BME280;40208;39.778;2.710;2022-11-15T14:14:45;100923.22;;;22.58;100.00
54308;BME280;40208;39.778;2.710;2022-11-15T14:20:26;100911.00;;;22.44;100.00
54308;BME280;40208;39.778;2.710;2022-11-15T14:23:19;100919.28;;;22.43;100.00
54308;BME280;40208;39.778;2.710;2022-11-15T14:26:04;100914.28;;;22.38;100.00
54308;BME280;40208;39.778;2.710;2022-11-15T14:28:49;100907.75;;;22.31;100.00
54308;BME280;40208;39.778;2.710;2022-11-15T14:31:33;100918.25;;;22.25;100.00
54308;BME280;40208;39.778;2.710;2022-11-15T14:34:19;100910.00;;;22.16;100.00
54308;BME280;40208;39.778;2.710;2022-11-15T14:37:19;100901.41;;;22.11;100.00
54308;BME280;40208;39.778;2.710;2022-11-15T14:40:05;100900.56;;;22.11;100.00
54308;BME280;40208;39.778;2.710;2022-11-15T14:42:50;100913.38;;;22.09;100.00
54308;BME280;40208;39.778;2.710;2022-11-15T14:45:35;100905.13;;;22.00;100.00
54308;BME280;40208;39.778;2.710;2022-11-15T14:48:19;100882.78;;;21.98;100.00
54308;BME280;40208;39.778;2.710;2022-11-15T14:51:09;100893.72;;;21.87;100.00
54308;BME280;40208;39.778;2.710;2022-11-15T14:53:54;100881.34;;;21.94;100.00
54308;BME280;40208;39.778;2.710;2022-11-15T14:56:39;100880.50;;;21.84;100.00
54308;BME280;40208;39.778;2.710;2022-11-15T14:59:24;100883.63;;;21.79;100.00
54308;BME280;40208;39.778;2.710;2022-11-15T15:02:13;100877.38;;;21.79;100.00
54308;BME280;40208;39.778;2.710;2022-11-15T15:05:00;100876.34;;;21.80;100.00
54308;BME280;40208;39.778;2.710;2022-11-15T15:07:49;100865.13;;;21.85;100.00
54308;BME280;40208;39.778;2.710;2022-11-15T15:10:35;100871.38;;;21.75;100.00
54308;BME280;40208;39.778;2.710;2022-11-15T15:13:22;100879.63;;;21.74;100.00
54308;BME280;40208;39.778;2.710;2022-11-15T15:16:07;100865.13;;;21.75;100.00
54308;BME280;40208;39.778;2.710;2022-11-15T15:18:52;100867.13;;;21.83;100.00
54308;BME280;40208;39.778;2.710;2022-11-15T15:21:36;100865.28;;;21.83;100.00
54308;BME280;40208;39.778;2.710;2022-11-15T15:24:21;100867.84;;;21.85;100.00
54308;BME280;40208;39.778;2.710;2022-11-15T15:27:06;100849.78;;;21.85;100.00
54308;BME280;40208;39.778;2.710;2022-11-15T15:29:50;100854.75;;;21.80;100.00
54308;BME280;40208;39.778;2.710;2022-11-15T15:32:35;100853.06;;;21.79;100.00
54308;BME280;40208;39.778;2.710;2022-11-15T15:35:20;100751.44;;;21.18;100.00
54308;BME280;40208;39.778;2.710;2022-11-15T15:38:05;100845.78;;;21.70;100.00
54308;BME280;40208;39.778;2.710;2022-11-15T15:40:49;100856.47;;;21.71;100.00
54308;BME280;40208;39.778;2.710;2022-11-15T15:43:34;100858.00;;;21.64;100.00
54308;BME280;40208;39.778;2.710;2022-11-15T15:46:19;100852.88;;;21.61;100.00
54308;BME280;40208;39.778;2.710;2022-11-15T15:49:04;100847.88;;;21.56;100.00
54308;BME280;40208;39.778;2.710;2022-11-15T15:51:49;100866.94;;;21.55;100.00
54308;BME280;40208;39.778;2.710;2022-11-15T15:54:34;100858.69;;;21.56;100.00
54308;BME280;40208;39.778;2.710;2022-11-15T15:57:19;100860.09;;;21.51;100.00
54308;BME280;40208;39.778;2.710;2022-11-15T16:00:05;100858.41;;;21.50;100.00
54308;BME280;40208;39.778;2.710;2022-11-15T16:02:51;100844.72;;;21.42;100.00
54308;BME280;40208;39.778;2.710;2022-11-15T16:05:36;100841.03;;;21.43;100.00
54308;BME280;40208;39.778;2.710;2022-11-15T16:08:21;100835.03;;;21.39;100.00
54308;BME280;40208;39.778;2.710;2022-11-15T16:11:07;100848.22;;;21.32;100.00
54308;BME280;40208;39.778;2.710;2022-11-15T16:13:52;100848.09;;;21.34;100.00
54308;BME280;40208;39.778;2.710;2022-11-15T16:16:37;100848.63;;;21.28;100.00